| time (UTC) | temp F | wind direction | speed MPH | gust MPH | rain 1hr in | rain 24hr in | rain mn in | humidity % | barometer mb |
| 20260503222854 | 65 | 239 | 0.0 | 13.0 | 0.00 | 0.00 | 0.00 | 35 | 1012.8 |
| 20260503221855 | 65 | 226 | 4.0 | 11.0 | 0.00 | 0.00 | 0.00 | 34 | 1013.3 |
| 20260503220853 | 65 | 259 | 0.0 | 13.0 | 0.00 | 0.00 | 0.00 | 34 | 1013.3 |
| 20260503215855 | 65 | 223 | 12.0 | 16.0 | 0.00 | 0.00 | 0.00 | 33 | 1013.3 |
| 20260503214853 | 66 | 209 | 9.0 | 9.0 | 0.00 | 0.00 | 0.00 | 33 | 1013.5 |
| 20260503213853 | 66 | 202 | 4.0 | 10.0 | 0.00 | 0.00 | 0.00 | 33 | 1014.0 |
| 20260503212853 | 65 | 211 | 0.0 | 12.0 | 0.00 | 0.00 | 0.00 | 32 | 1013.9 |
| 20260503211852 | 65 | 215 | 0.0 | 15.0 | 0.00 | 0.00 | 0.00 | 32 | 1014.4 |
| 20260503210852 | 66 | 244 | 0.0 | 13.0 | 0.00 | 0.00 | 0.00 | 31 | 1014.8 |
| 20260503205851 | 66 | 232 | 2.0 | 18.0 | 0.00 | 0.00 | 0.00 | 31 | 1014.8 |
| 20260503204852 | 66 | 212 | 0.0 | 20.0 | 0.00 | 0.00 | 0.00 | 31 | 1014.5 |
| 20260503203851 | 66 | 270 | 5.0 | 15.0 | 0.00 | 0.00 | 0.00 | 31 | 1014.8 |
| 20260503202850 | 66 | 215 | 0.0 | 18.0 | 0.00 | 0.00 | 0.00 | 31 | 1014.8 |
| 20260503201851 | 66 | 236 | 2.0 | 15.0 | 0.00 | 0.00 | 0.00 | 32 | 1015.0 |
| 20260503195850 | 65 | 211 | 5.0 | 16.0 | 0.00 | 0.00 | 0.00 | 32 | 1015.1 |
| 20260503194849 | 65 | 223 | 0.0 | 14.0 | 0.00 | 0.00 | 0.00 | 29 | 1015.7 |
| 20260503192849 | 65 | 213 | 0.0 | 17.0 | 0.00 | 0.00 | 0.00 | 32 | 1015.9 |
| 20260503191848 | 64 | 196 | 0.0 | 19.0 | 0.00 | 0.00 | 0.00 | 35 | 1016.1 |
| 20260503185848 | 64 | 180 | 0.0 | 14.0 | 0.00 | 0.00 | 0.00 | 29 | 1016.6 |
| 20260503184848 | 64 | 267 | 0.0 | 18.0 | 0.00 | 0.00 | 0.00 | 30 | 1017.1 |
| 20260503183847 | 64 | 266 | 0.0 | 13.0 | 0.00 | 0.00 | 0.00 | 29 | 1017.2 |
| 20260503182847 | 63 | 208 | 3.0 | 7.0 | 0.00 | 0.00 | 0.00 | 29 | 1017.2 |
| 20260503181846 | 63 | 232 | 0.0 | 15.0 | 0.00 | 0.00 | 0.00 | 32 | 1017.7 |
| 20260503180846 | 63 | 211 | 5.0 | 12.0 | 0.00 | 0.00 | 0.00 | 29 | 1017.7 |
| 20260503175846 | 63 | 242 | 9.0 | 16.0 | 0.00 | 0.00 | 0.00 | 28 | 1017.7 |
| 20260503174846 | 63 | 251 | 0.0 | 15.0 | 0.00 | 0.00 | 0.00 | 32 | 1017.7 |
| 20260503173845 | 63 | 245 | 0.0 | 6.0 | 0.00 | 0.00 | 0.00 | 32 | 1018.2 |
| 20260503172845 | 62 | 198 | 0.0 | 11.0 | 0.00 | 0.00 | 0.00 | 34 | 1018.2 |
| 20260503171845 | 62 | 251 | 5.0 | 16.0 | 0.00 | 0.00 | 0.00 | 30 | 1018.2 |
| 20260503170844 | 61 | 264 | 0.0 | 11.0 | 0.00 | 0.00 | 0.00 | 33 | 1018.5 |
| 20260503150841 | 58 | 253 | 10.0 | 10.0 | 0.00 | 0.00 | 0.00 | 41 | 1019.8 |
| 20260503130838 | 43 | 186 | 0.0 | 0.0 | 0.00 | 0.00 | 0.00 | 96 | 1019.9 |
| 20260503080858 | 36 | 3 | 0.0 | 0.0 | 0.00 | 0.00 | 0.00 | 95 | 1018.5 |
| 20260503071856 | 37 | 3 | 0.0 | 0.0 | 0.00 | 0.00 | 0.00 | 95 | 1018.5 |
| 20260503070856 | 37 | 3 | 0.0 | 0.0 | 0.00 | 0.00 | 0.00 | 94 | 1018.6 |
| 20260503054854 | 38 | 3 | 0.0 | 0.0 | 0.00 | 0.00 | 0.00 | 92 | 1019.0 |
| 20260503053853 | 38 | 3 | 0.0 | 0.0 | 0.00 | 0.00 | 0.00 | 92 | 1019.1 |
| 20260503052853 | 38 | 3 | 0.0 | 0.0 | 0.00 | 0.00 | 0.00 | 92 | 1019.1 |
| 20260503051853 | 39 | 3 | 0.0 | 0.0 | 0.00 | 0.00 | 0.00 | 91 | 1019.1 |
| 20260503050853 | 39 | 3 | 0.0 | 0.0 | 0.00 | 0.00 | 0.00 | 91 | 1019.0 |
| 20260503044852 | 39 | 3 | 0.0 | 0.0 | 0.00 | 0.00 | 0.00 | 90 | 1019.0 |
| 20260503043852 | 40 | 3 | 0.0 | 0.0 | 0.00 | 0.00 | 0.00 | 89 | 1018.9 |
| 20260503042851 | 40 | 3 | 0.0 | 0.0 | 0.00 | 0.00 | 0.00 | 88 | 1018.9 |
| 20260503041851 | 40 | 3 | 0.0 | 0.0 | 0.00 | 0.00 | 0.00 | 87 | 1018.9 |
| 20260503040851 | 40 | 3 | 0.0 | 0.0 | 0.00 | 0.00 | 0.00 | 85 | 1018.9 |
| 20260503033850 | 41 | 3 | 0.0 | 0.0 | 0.00 | 0.00 | 0.00 | 81 | 1018.9 |
| 20260503032850 | 41 | 3 | 0.0 | 0.0 | 0.00 | 0.00 | 0.00 | 79 | 1018.9 |
| 20260503030849 | 42 | 3 | 0.0 | 0.0 | 0.00 | 0.00 | 0.00 | 74 | 1018.9 |
| 20260503025848 | 42 | 3 | 0.0 | 0.0 | 0.00 | 0.00 | 0.00 | 71 | 1018.9 |
| 20260503024849 | 43 | 3 | 0.0 | 0.0 | 0.00 | 0.00 | 0.00 | 69 | 1018.8 |
| 20260503023848 | 44 | 3 | 0.0 | 0.0 | 0.00 | 0.00 | 0.00 | 69 | 1018.6 |
| 20260503022848 | 44 | 3 | 0.0 | 0.0 | 0.00 | 0.00 | 0.00 | 64 | 1018.6 |
| 20260503015847 | 47 | 3 | 0.0 | 0.0 | 0.00 | 0.00 | 0.00 | 58 | 1018.4 |
| 20260503014846 | 47 | 3 | 0.0 | 0.0 | 0.00 | 0.00 | 0.00 | 56 | 1018.0 |
| 20260503013846 | 48 | 3 | 0.0 | 0.0 | 0.00 | 0.00 | 0.00 | 53 | 1017.8 |
| 20260503012846 | 49 | 3 | 0.0 | 0.0 | 0.00 | 0.00 | 0.00 | 48 | 1017.9 |
| 20260503011845 | 49 | 1 | 0.0 | 0.0 | 0.00 | 0.00 | 0.00 | 48 | 1017.6 |
| 20260503010846 | 50 | 2 | 0.0 | 0.0 | 0.00 | 0.00 | 0.00 | 46 | 1017.6 |
| 20260503005845 | 50 | 3 | 0.0 | 0.0 | 0.00 | 0.00 | 0.00 | 47 | 1017.6 |
| 20260503003844 | 51 | 18 | 0.0 | 0.0 | 0.00 | 0.00 | 0.00 | 46 | 1017.3 |
| 20260503002843 | 52 | 13 | 0.0 | 0.0 | 0.00 | 0.00 | 0.00 | 44 | 1017.3 |
| 20260503001844 | 52 | 18 | 0.0 | 0.0 | 0.00 | 0.00 | 0.00 | 42 | 1017.0 |
| 20260503000843 | 53 | 18 | 0.0 | 5.0 | 0.00 | 0.00 | 0.00 | 41 | 1016.9 |
| 20260502235843 | 53 | 334 | 0.0 | 5.0 | 0.00 | 0.00 | 0.00 | 40 | 1016.9 |
| 20260502234843 | 53 | 3 | 0.0 | 6.0 | 0.00 | 0.00 | 0.00 | 41 | 1016.7 |
| 20260502233843 | 54 | 39 | 0.0 | 6.0 | 0.00 | 0.00 | 0.00 | 39 | 1016.6 |
| 20260502232843 | 55 | 30 | 2.0 | 4.0 | 0.00 | 0.00 | 0.00 | 38 | 1016.6 |
| 20260502231842 | 54 | 13 | 1.0 | 4.0 | 0.00 | 0.00 | 0.00 | 36 | 1016.6 |
| 20260502225841 | 55 | 35 | 0.0 | 8.0 | 0.00 | 0.00 | 0.00 | 41 | 1016.6 |
| 20260502224841 | 55 | 357 | 0.0 | 1.0 | 0.00 | 0.00 | 0.00 | 37 | 1016.5 |
| 20260502223840 | 56 | 357 | 0.0 | 7.0 | 0.00 | 0.00 | 0.00 | 35 | 1016.5 |